Time;durP1;ratioP1;P1;durP2;ratioP2;P2;SDS_P1;SDS_P2;PMS_P1;PMS_P2;Temp;Humidity;BMP_temperature;BMP_pressure;BME280_temperature;BME280_humidity;BME280_pressure;Samples;Min_cycle;Max_cycle;Signal;HPM_P1;HPM_P2
2021/07/16 00:01:57;;;;;;;9.35;3.60;;;;;;;15.93;100.00;97778.91;4985299;28;20207;-81
2021/07/16 00:04:25;;;;;;;10.43;3.50;;;;;;;15.82;100.00;97780.53;4986903;28;20061;-80
2021/07/16 00:06:51;;;;;;;8.35;3.08;;;;;;;15.83;100.00;97774.72;4986257;28;20046;-78
2021/07/16 00:09:19;;;;;;;15.32;3.95;;;;;;;15.79;100.00;97783.94;4985072;28;20081;-79
2021/07/16 00:11:45;;;;;;;11.98;4.07;;;;;;;15.73;100.00;97780.66;4986309;28;20597;-79
2021/07/16 00:14:12;;;;;;;15.52;3.70;;;;;;;15.70;100.00;97792.25;4985149;28;20053;-79
2021/07/16 00:16:39;;;;;;;12.13;3.83;;;;;;;15.74;100.00;97784.19;4984112;28;20039;-78
2021/07/16 00:19:06;;;;;;;9.63;3.70;;;;;;;15.79;100.00;97792.13;4982294;28;20047;-79
2021/07/16 00:21:33;;;;;;;11.77;3.38;;;;;;;15.73;100.00;97791.56;4982632;28;20046;-79
2021/07/16 00:24:00;;;;;;;12.30;3.65;;;;;;;15.68;100.00;97786.34;4983008;28;20043;-79
2021/07/16 00:26:28;;;;;;;10.30;3.20;;;;;;;15.66;100.00;97790.56;4982999;28;20573;-78
2021/07/16 00:28:55;;;;;;;5.47;3.30;;;;;;;15.66;100.00;97794.09;4983231;28;20231;-79
2021/07/16 00:31:22;;;;;;;11.90;3.78;;;;;;;15.72;100.00;97794.66;4982747;28;20047;-80
2021/07/16 00:33:51;;;;;;;11.68;3.60;;;;;;;15.71;100.00;97799.31;4983403;28;20061;-76
2021/07/16 00:36:18;;;;;;;5.38;3.40;;;;;;;15.71;100.00;97795.78;4982895;28;20047;-81
2021/07/16 00:38:45;;;;;;;11.18;4.50;;;;;;;15.69;100.00;97804.31;4982575;28;20051;-82
2021/07/16 00:41:11;;;;;;;9.32;4.28;;;;;;;15.67;100.00;97792.13;4982274;28;20470;-79
2021/07/16 00:43:39;;;;;;;15.52;4.55;;;;;;;15.61;100.00;97801.72;4982124;28;20051;-80
2021/07/16 00:46:05;;;;;;;17.27;4.80;;;;;;;15.40;100.00;97799.91;4980040;28;20392;-81
2021/07/16 00:48:32;;;;;;;15.65;4.30;;;;;;;15.51;100.00;97797.53;4981453;28;20047;-81
2021/07/16 00:50:58;;;;;;;17.17;4.45;;;;;;;15.52;100.00;97790.91;4980338;28;20569;-81
2021/07/16 00:53:25;;;;;;;7.78;3.72;;;;;;;15.55;100.00;97803.88;4978893;28;20055;-80
2021/07/16 00:55:52;;;;;;;11.50;3.63;;;;;;;15.50;100.00;97804.13;4979880;28;20046;-80
2021/07/16 00:58:18;;;;;;;11.13;3.92;;;;;;;15.39;100.00;97800.22;4978272;28;20054;-80
2021/07/16 01:00:45;;;;;;;12.82;3.88;;;;;;;15.38;100.00;97804.09;4978622;28;20050;-80
2021/07/16 01:03:12;;;;;;;20.33;3.80;;;;;;;15.18;100.00;97796.81;4981881;28;20123;-80
2021/07/16 01:05:40;;;;;;;20.70;3.20;;;;;;;15.04;100.00;97805.34;4980670;28;20121;-80
2021/07/16 01:08:07;;;;;;;18.35;3.40;;;;;;;15.01;100.00;97802.47;4979690;28;20074;-81
2021/07/16 01:10:34;;;;;;;24.35;3.58;;;;;;;14.93;100.00;97806.91;4980325;28;20051;-78
2021/07/16 01:13:01;;;;;;;11.10;3.60;;;;;;;14.75;100.00;97802.78;4978796;28;20047;-82
2021/07/16 01:15:32;;;;;;;24.08;4.03;;;;;;;14.74;100.00;97796.53;4980162;28;20050;-83
2021/07/16 01:17:59;;;;;;;21.17;4.10;;;;;;;14.66;100.00;97785.75;4981989;28;20049;-80
2021/07/16 01:20:28;;;;;;;13.57;4.15;;;;;;;14.54;100.00;97788.41;4981625;28;20051;-81
2021/07/16 01:22:59;;;;;;;24.13;4.68;;;;;;;14.51;100.00;97786.38;4981442;28;20050;-82
2021/07/16 01:25:30;;;;;;;16.92;4.22;;;;;;;14.52;100.00;97787.97;4981963;28;20122;-81
2021/07/16 01:27:59;;;;;;;16.50;3.97;;;;;;;14.56;100.00;97786.16;4983211;28;20058;-80
2021/07/16 01:30:28;;;;;;;8.35;3.78;;;;;;;14.66;100.00;97791.19;4983827;28;20047;-78
2021/07/16 01:32:56;;;;;;;19.35;4.03;;;;;;;14.75;100.00;97792.69;4987510;28;20458;-81
2021/07/16 01:35:25;;;;;;;12.65;4.15;;;;;;;14.77;100.00;97782.22;4987330;28;20467;-80
2021/07/16 01:37:51;;;;;;;9.52;3.95;;;;;;;14.74;100.00;97791.09;4985664;28;20125;-79
2021/07/16 01:40:21;;;;;;;22.52;4.55;;;;;;;14.73;100.00;97788.72;4988657;28;20035;-78
2021/07/16 01:42:53;;;;;;;12.75;3.88;;;;;;;14.77;100.00;97779.50;4986498;28;20074;-81
2021/07/16 01:45:27;;;;;;;14.98;4.15;;;;;;;14.76;100.00;97788.03;4984667;28;20287;-81
2021/07/16 01:48:00;;;;;;;12.40;3.97;;;;;;;14.80;100.00;97792.47;4984341;28;20268;-82
2021/07/16 01:50:29;;;;;;;19.90;4.38;;;;;;;14.84;100.00;97779.75;4984955;28;20046;-78
2021/07/16 01:52:55;;;;;;;22.67;3.83;;;;;;;14.62;100.00;97784.81;4985978;28;20054;-81
2021/07/16 01:55:24;;;;;;;17.48;4.10;;;;;;;14.56;100.00;97781.50;4984387;28;20042;-79
2021/07/16 01:57:55;;;;;;;23.48;4.20;;;;;;;14.52;100.00;97766.16;4985709;28;20047;-77
2021/07/16 02:00:29;;;;;;;25.33;4.72;;;;;;;14.45;100.00;97768.66;4983528;28;20057;-77
2021/07/16 02:03:01;;;;;;;30.00;4.90;;;;;;;14.39;100.00;97775.44;4985557;28;20419;-81
2021/07/16 02:05:29;;;;;;;23.02;4.10;;;;;;;14.39;100.00;97786.34;4984451;28;20157;-80
2021/07/16 02:07:59;;;;;;;24.73;4.85;;;;;;;14.48;100.00;97774.22;4983342;28;20046;-80
2021/07/16 02:10:26;;;;;;;25.88;4.40;;;;;;;14.56;100.00;97772.53;4984857;28;20055;-81
2021/07/16 02:12:57;;;;;;;12.90;4.13;;;;;;;14.60;100.00;97777.00;5001074;28;20050;-82
2021/07/16 02:15:27;;;;;;;24.20;4.05;;;;;;;14.58;100.00;97779.22;4993766;28;20030;-80
2021/07/16 02:17:54;;;;;;;21.85;4.00;;;;;;;14.54;100.00;97775.59;5009282;28;20035;-79
2021/07/16 02:20:25;;;;;;;19.98;4.82;;;;;;;14.57;100.00;97785.81;4994473;28;20043;-77
2021/07/16 02:22:53;;;;;;;19.25;3.88;;;;;;;14.38;100.00;97779.28;4993790;28;20042;-78
2021/07/16 02:25:21;;;;;;;21.70;4.55;;;;;;;14.33;100.00;97775.66;4994531;28;20039;-76
2021/07/16 02:27:49;;;;;;;19.33;4.25;;;;;;;14.37;100.00;97788.59;4995220;28;20044;-80
2021/07/16 02:30:17;;;;;;;12.88;4.65;;;;;;;14.37;100.00;97786.69;5007987;28;20046;-78
2021/07/16 02:32:45;;;;;;;12.93;4.32;;;;;;;14.42;100.00;97791.13;4988593;28;20246;-82
2021/07/16 02:35:12;;;;;;;16.20;4.45;;;;;;;14.44;100.00;97797.81;4981230;28;20050;-82
2021/07/16 02:37:40;;;;;;;21.60;4.72;;;;;;;14.37;100.00;97799.50;4981862;28;20047;-81
2021/07/16 02:40:09;;;;;;;20.73;4.68;;;;;;;14.30;100.00;97806.25;4979272;28;20077;-82
2021/07/16 02:42:35;;;;;;;30.38;5.28;;;;;;;14.10;100.00;97806.25;4995438;28;20058;-78
2021/07/16 02:45:07;;;;;;;33.03;5.15;;;;;;;13.95;100.00;97807.69;4981550;28;20043;-81
2021/07/16 02:47:36;;;;;;;35.78;4.90;;;;;;;13.84;100.00;97808.38;4973085;28;20053;-80
2021/07/16 02:50:08;;;;;;;36.50;5.22;;;;;;;13.88;100.00;97809.34;4972439;28;20518;-80
2021/07/16 02:52:36;;;;;;;35.60;5.47;;;;;;;14.00;100.00;97809.41;4973744;28;20051;-81
2021/07/16 02:55:04;;;;;;;28.58;5.35;;;;;;;14.09;100.00;97815.59;4974186;28;20057;-77
2021/07/16 02:57:31;;;;;;;25.17;5.82;;;;;;;14.11;100.00;97802.44;4973275;28;21390;-81
2021/07/16 02:59:58;;;;;;;35.05;5.55;;;;;;;14.21;100.00;97810.97;4973779;28;20043;-80
2021/07/16 03:02:45;;;;;;;37.13;4.88;;;;;;;14.10;100.00;97814.44;5005182;23;20038;-79
2021/07/16 03:05:16;;;;;;;28.52;4.75;;;;;;;13.95;100.00;97804.16;5014060;28;20095;-79
2021/07/16 03:08:35;;;;;;;;;;;;;;;;;;;;;
2021/07/16 03:12:07;;;;;;;24.17;5.25;;;;;;;14.00;100.00;97803.94;5027549;28;20168;-76
2021/07/16 03:16:24;;;;;;;26.80;5.05;;;;;;;14.06;100.00;97825.22;5017943;28;20060;-78
2021/07/16 03:19:48;;;;;;;20.10;4.83;;;;;;;14.12;100.00;97831.22;4951802;28;20101;-78
2021/07/16 03:22:40;;;;;;;36.30;4.88;;;;;;;14.07;100.00;97829.50;4945435;28;20064;-79
2021/07/16 03:29:06;;;;;;;25.90;5.40;;;;;;;13.91;100.00;97833.19;5020681;28;20053;-79
2021/07/16 03:31:33;;;;;;;30.90;6.15;;;;;;;14.03;100.00;97822.34;5016717;28;20055;-77
2021/07/16 03:34:03;;;;;;;20.40;5.53;;;;;;;14.08;100.00;97839.28;5018504;28;20052;-77
2021/07/16 03:36:30;;;;;;;23.70;5.28;;;;;;;14.02;100.00;97837.06;5033758;28;20296;-79
2021/07/16 03:39:00;;;;;;;45.85;6.35;;;;;;;13.88;100.00;97833.84;5015497;28;20044;-77
2021/07/16 03:41:27;;;;;;;24.55;5.70;;;;;;;13.88;100.00;97833.84;5016469;28;20048;-77
2021/07/16 03:43:54;;;;;;;32.97;5.10;;;;;;;13.84;100.00;97828.25;5032903;28;20484;-77
2021/07/16 03:46:21;;;;;;;30.30;5.60;;;;;;;13.88;100.00;97833.84;5032155;28;20128;-79
2021/07/16 03:48:56;;;;;;;29.98;6.15;;;;;;;13.95;100.00;97844.97;5034530;28;20068;-78
2021/07/16 03:51:23;;;;;;;31.83;5.93;;;;;;;14.01;100.00;97847.19;5031940;28;20045;-78
2021/07/16 03:53:50;;;;;;;28.17;6.68;;;;;;;13.98;100.00;97845.13;5031435;28;20052;-76
2021/07/16 03:56:17;;;;;;;33.25;5.85;;;;;;;13.91;100.00;97839.38;5031514;28;20045;-78
2021/07/16 03:58:45;;;;;;;32.05;5.20;;;;;;;13.89;100.00;97833.50;5033419;28;20072;-78
2021/07/16 04:01:13;;;;;;;22.52;5.03;;;;;;;13.95;100.00;97839.53;5051152;28;20074;-79
2021/07/16 04:03:41;;;;;;;30.50;5.03;;;;;;;14.01;100.00;97852.63;5050756;28;20136;-79
2021/07/16 04:06:10;;;;;;;19.55;5.13;;;;;;;14.08;100.00;97836.56;5033241;28;20113;-77
2021/07/16 04:08:40;;;;;;;31.38;5.72;;;;;;;14.11;100.00;97830.44;5033069;28;20099;-78
2021/07/16 04:11:07;;;;;;;21.40;5.40;;;;;;;14.15;100.00;97838.72;5033402;28;20045;-78
2021/07/16 04:13:35;;;;;;;23.90;6.05;;;;;;;14.19;100.00;97835.03;5033471;28;20054;-78
2021/07/16 04:16:02;;;;;;;24.88;5.95;;;;;;;14.29;100.00;97826.47;5050240;28;20045;-78
2021/07/16 04:18:29;;;;;;;26.23;6.40;;;;;;;14.35;100.00;97836.03;5049273;28;20230;-78
2021/07/16 04:20:58;;;;;;;18.35;5.40;;;;;;;14.44;100.00;97835.97;5032163;28;20156;-79
2021/07/16 04:23:24;;;;;;;21.02;5.90;;;;;;;14.61;100.00;97833.06;5054853;28;20052;-79
2021/07/16 04:25:51;;;;;;;20.73;6.13;;;;;;;14.64;100.00;97834.31;5052286;28;20048;-80
2021/07/16 04:28:17;;;;;;;20.15;5.88;;;;;;;14.67;100.00;97823.53;5050850;28;20037;-80
2021/07/16 04:30:44;;;;;;;22.33;5.97;;;;;;;14.76;100.00;97824.25;5051766;28;20049;-79
2021/07/16 04:33:12;;;;;;;24.30;5.97;;;;;;;14.75;100.00;97819.94;5053347;28;20072;-79
2021/07/16 04:35:40;;;;;;;18.23;5.30;;;;;;;14.87;100.00;97830.06;5044382;28;20079;-82
2021/07/16 04:38:09;;;;;;;16.45;4.60;;;;;;;14.92;100.00;97818.94;5030417;28;20108;-81
2021/07/16 04:40:37;;;;;;;12.93;4.65;;;;;;;15.04;100.00;97831.81;5022873;28;20052;-80
2021/07/16 04:43:05;;;;;;;22.02;5.15;;;;;;;15.05;100.00;97831.44;5022509;28;20379;-80
2021/07/16 04:45:37;;;;;;;19.63;4.55;;;;;;;15.13;100.00;97841.47;5017757;28;20045;-80
2021/07/16 04:48:56;;;;;;;;;;;;;;;;;;;;;
2021/07/16 04:54:09;;;;;;;11.52;4.53;;;;;;;15.39;100.00;97852.06;5039081;28;20048;-81
2021/07/16 04:56:25;;;;;;;18.30;5.50;;;;;;;15.61;100.00;97848.91;5019852;28;20065;-81
2021/07/16 04:58:52;;;;;;;14.43;5.40;;;;;;;15.74;100.00;97853.22;5036758;28;20063;-82
2021/07/16 05:01:40;;;;;;;9.32;5.20;;;;;;;15.84;100.00;97841.03;5041993;28;20106;-78
2021/07/16 05:04:08;;;;;;;19.80;5.72;;;;;;;16.07;100.00;97862.06;5054325;28;20099;-79
2021/07/16 05:06:39;;;;;;;16.70;5.07;;;;;;;16.19;100.00;97861.22;5040659;28;20516;-79
2021/07/16 05:09:06;;;;;;;9.20;4.70;;;;;;;16.27;100.00;97854.03;5042584;28;20551;-79
2021/07/16 05:11:33;;;;;;;12.18;4.78;;;;;;;16.41;100.00;97843.50;5023280;28;20404;-79
2021/07/16 05:14:01;;;;;;;5.90;4.50;;;;;;;16.83;100.00;97863.06;5057714;28;20044;-79
2021/07/16 05:16:33;;;;;;;10.52;3.92;;;;;;;17.10;100.00;97856.75;5057156;28;20037;-79
2021/07/16 05:19:00;;;;;;;6.80;3.90;;;;;;;17.31;100.00;97860.03;5037732;28;20052;-79
2021/07/16 05:21:27;;;;;;;4.72;3.38;;;;;;;17.45;100.00;97854.88;5014869;28;20049;-80
2021/07/16 05:23:53;;;;;;;7.35;3.40;;;;;;;17.64;100.00;97856.94;5032024;28;20257;-78
2021/07/16 05:26:20;;;;;;;7.72;3.45;;;;;;;17.85;100.00;97846.50;5032371;28;20049;-76
2021/07/16 05:28:49;;;;;;;7.32;3.22;;;;;;;18.07;100.00;97843.06;5013155;28;20060;-77
2021/07/16 05:31:18;;;;;;;5.93;3.03;;;;;;;18.23;100.00;97841.06;5030749;28;20045;-79
2021/07/16 05:33:48;;;;;;;3.92;2.80;;;;;;;18.36;100.00;97844.47;5019603;28;20148;-78
2021/07/16 05:36:17;;;;;;;6.60;2.63;;;;;;;18.41;100.00;97838.69;5034071;28;20785;-81
2021/07/16 05:38:44;;;;;;;4.93;2.60;;;;;;;18.56;100.00;97848.81;5017526;28;20072;-78
2021/07/16 05:41:13;;;;;;;6.72;2.53;;;;;;;18.68;100.00;97848.69;5051258;28;20048;-77
2021/07/16 05:43:41;;;;;;;3.58;2.67;;;;;;;18.75;100.00;97839.78;5036786;28;20056;-79
2021/07/16 05:46:07;;;;;;;4.07;2.33;;;;;;;18.84;100.00;97843.88;5042631;28;20056;-79
2021/07/16 05:48:45;;;;;;;6.13;2.85;;;;;;;18.92;100.00;97848.34;5033718;28;20107;-79
2021/07/16 05:51:12;;;;;;;6.47;2.70;;;;;;;19.01;100.00;97861.84;5044327;28;20045;-79
2021/07/16 05:53:39;;;;;;;8.15;2.33;;;;;;;19.09;100.00;97860.81;5053358;28;20299;-78
2021/07/16 05:56:06;;;;;;;3.85;2.72;;;;;;;19.10;100.00;97857.69;5050806;28;20065;-77
2021/07/16 05:58:34;;;;;;;4.82;2.58;;;;;;;19.19;100.00;97850.03;5054301;28;20033;-79
2021/07/16 06:01:01;;;;;;;5.30;2.70;;;;;;;19.21;100.00;97857.88;5034622;28;20385;-77
2021/07/16 06:03:28;;;;;;;6.10;2.63;;;;;;;19.25;100.00;97856.00;5034634;28;20045;-78
2021/07/16 06:05:57;;;;;;;3.85;2.83;;;;;;;19.29;100.00;97857.66;5035118;28;20079;-79
2021/07/16 06:08:24;;;;;;;4.43;2.90;;;;;;;19.42;100.00;97858.28;5054152;28;20601;-78
2021/07/16 06:10:51;;;;;;;4.00;2.85;;;;;;;19.55;100.00;97859.69;5035925;28;20044;-79
2021/07/16 06:13:17;;;;;;;7.13;2.78;;;;;;;19.64;100.00;97856.69;5036932;28;20053;-79
2021/07/16 06:15:44;;;;;;;4.43;2.80;;;;;;;19.61;100.00;97849.19;5036005;28;20049;-77
2021/07/16 06:18:13;;;;;;;5.13;3.10;;;;;;;19.64;100.00;97862.19;5055667;28;20064;-81
2021/07/16 06:20:44;;;;;;;5.80;2.78;;;;;;;19.61;100.00;97865.66;5056505;28;20047;-78
2021/07/16 06:23:12;;;;;;;9.57;3.08;;;;;;;19.54;100.00;97854.53;5056783;28;20049;-80
2021/07/16 06:25:38;;;;;;;5.03;3.00;;;;;;;19.55;100.00;97851.44;5036199;28;20256;-80
2021/07/16 06:28:07;;;;;;;6.10;3.08;;;;;;;19.57;100.00;97853.81;5054094;28;20041;-80
2021/07/16 06:30:37;;;;;;;6.82;3.20;;;;;;;19.62;100.00;97870.78;5037178;28;20052;-79
2021/07/16 06:33:03;;;;;;;6.30;3.28;;;;;;;19.65;100.00;97861.81;5055622;28;20045;-77
2021/07/16 06:35:32;;;;;;;6.80;3.22;;;;;;;19.70;100.00;97863.44;5058781;28;20056;-79
2021/07/16 06:37:59;;;;;;;6.05;3.00;;;;;;;19.95;100.00;97878.34;5036342;28;20112;-78
2021/07/16 06:40:27;;;;;;;6.15;3.33;;;;;;;20.02;100.00;97872.97;5055346;28;20041;-81
2021/07/16 06:42:54;;;;;;;5.15;2.97;;;;;;;20.10;100.00;97884.84;5035796;28;20045;-78
2021/07/16 06:45:21;;;;;;;9.95;2.80;;;;;;;20.16;100.00;97880.59;5050849;28;20040;-79
2021/07/16 06:47:48;;;;;;;6.25;2.65;;;;;;;20.27;100.00;97887.88;5051388;28;20060;-78
2021/07/16 06:50:17;;;;;;;5.80;2.88;;;;;;;20.26;100.00;97882.78;5053599;28;20116;-80
2021/07/16 06:52:43;;;;;;;11.00;2.95;;;;;;;20.30;100.00;97894.59;5054544;28;20047;-79
2021/07/16 06:55:10;;;;;;;4.05;2.83;;;;;;;20.25;100.00;97897.66;5059210;28;20075;-79
2021/07/16 06:57:37;;;;;;;4.78;3.22;;;;;;;20.26;100.00;97902.03;5040430;28;20040;-78
2021/07/16 07:00:09;;;;;;;7.55;3.00;;;;;;;20.29;100.00;97901.25;5038361;28;20048;-79
2021/07/16 07:02:39;;;;;;;7.03;3.58;;;;;;;20.38;100.00;97905.34;5020380;28;20183;-79
2021/07/16 07:05:07;;;;;;;12.48;3.30;;;;;;;20.43;100.00;97909.72;5052572;28;20121;-79
2021/07/16 07:07:33;;;;;;;6.20;3.60;;;;;;;20.54;100.00;97910.66;5037543;28;20044;-78
2021/07/16 07:10:00;;;;;;;9.00;3.83;;;;;;;20.64;100.00;97929.25;5035473;28;20127;-81
2021/07/16 07:12:28;;;;;;;13.63;4.00;;;;;;;20.70;100.00;97919.47;5033820;28;20037;-78
2021/07/16 07:14:55;;;;;;;8.85;3.60;;;;;;;20.75;100.00;97921.91;5051204;28;20045;-80
2021/07/16 07:17:25;;;;;;;6.40;3.85;;;;;;;20.77;100.00;97919.59;5019089;28;20052;-80
2021/07/16 07:19:54;;;;;;;14.68;4.50;;;;;;;20.79;100.00;97920.00;5018649;28;20049;-79
2021/07/16 07:22:21;;;;;;;12.43;4.43;;;;;;;20.86;100.00;97927.53;4996490;28;20037;-79
2021/07/16 07:24:52;;;;;;;13.35;5.00;;;;;;;20.81;100.00;97936.13;5032190;28;20046;-81
2021/07/16 07:27:19;;;;;;;16.80;4.75;;;;;;;20.90;100.00;97934.69;5030849;28;20075;-79
2021/07/16 07:29:46;;;;;;;7.00;4.57;;;;;;;20.97;100.00;97934.78;5034833;28;20041;-80
2021/07/16 07:32:13;;;;;;;9.45;4.38;;;;;;;21.05;100.00;97939.19;5018407;28;20048;-78
2021/07/16 07:34:40;;;;;;;7.47;4.68;;;;;;;21.08;100.00;97932.19;5018921;28;20044;-78
2021/07/16 07:37:10;;;;;;;10.80;5.28;;;;;;;21.09;100.00;97939.25;5034560;28;20048;-78
2021/07/16 07:39:43;;;;;;;8.77;4.55;;;;;;;21.30;100.00;97931.22;5018588;28;20049;-80
2021/07/16 07:42:15;;;;;;;11.85;4.25;;;;;;;21.39;100.00;97920.72;5035722;28;20044;-78
2021/07/16 07:44:49;;;;;;;9.20;4.70;;;;;;;21.37;100.00;97922.25;5017192;28;20048;-79
2021/07/16 07:47:16;;;;;;;12.25;4.13;;;;;;;21.49;100.00;97927.50;5052010;28;20045;-80
2021/07/16 07:49:47;;;;;;;8.20;4.22;;;;;;;21.47;100.00;97932.59;5033243;28;20103;-82
2021/07/16 07:52:21;;;;;;;8.10;4.10;;;;;;;21.70;100.00;97927.69;5017339;28;20056;-78
2021/07/16 07:54:51;;;;;;;9.27;4.10;;;;;;;21.78;100.00;97925.78;5032294;28;20063;-80
2021/07/16 07:57:18;;;;;;;7.60;3.80;;;;;;;22.09;100.00;97925.28;5033094;28;20424;-79
2021/07/16 07:59:45;;;;;;;6.68;4.70;;;;;;;22.13;100.00;97921.38;5017200;28;20144;-78
2021/07/16 08:02:13;;;;;;;6.25;4.50;;;;;;;22.60;100.00;97922.44;5016610;28;20045;-80
2021/07/16 08:04:41;;;;;;;8.93;4.40;;;;;;;22.92;100.00;97926.13;5033895;28;20053;-78
2021/07/16 08:07:11;;;;;;;6.28;3.90;;;;;;;23.21;100.00;97918.75;5035849;28;20045;-80
2021/07/16 08:09:38;;;;;;;8.80;3.97;;;;;;;23.96;100.00;97921.22;5031934;28;20045;-78
2021/07/16 08:12:08;;;;;;;7.50;4.32;;;;;;;24.17;100.00;97921.25;5032619;28;20052;-77
2021/07/16 08:14:40;;;;;;;11.02;4.43;;;;;;;23.52;100.00;97924.38;5017979;28;20467;-78
2021/07/16 08:17:09;;;;;;;8.05;3.95;;;;;;;23.42;100.00;97925.16;5034657;28;20045;-81
2021/07/16 08:19:37;;;;;;;12.88;4.85;;;;;;;23.28;100.00;97919.56;5036967;28;20052;-78
2021/07/16 08:22:03;;;;;;;18.30;5.47;;;;;;;23.19;100.00;97926.63;5034593;28;20806;-79
2021/07/16 08:24:30;;;;;;;8.10;4.85;;;;;;;23.29;100.00;97921.16;5033611;28;20079;-78
2021/07/16 08:26:57;;;;;;;7.18;4.72;;;;;;;23.15;100.00;97932.13;5034448;28;20322;-77
2021/07/16 08:29:26;;;;;;;10.85;4.40;;;;;;;23.12;100.00;97927.41;5032521;28;20400;-80
2021/07/16 08:31:56;;;;;;;12.23;4.72;;;;;;;23.41;100.00;97928.28;5016561;28;20041;-81
2021/07/16 08:34:23;;;;;;;8.20;4.45;;;;;;;23.69;100.00;97922.81;5036167;28;20048;-78
2021/07/16 08:36:50;;;;;;;8.90;5.10;;;;;;;23.87;100.00;97934.69;5021928;28;20056;-79
2021/07/16 08:39:18;;;;;;;10.93;4.70;;;;;;;24.29;100.00;97931.09;5021517;28;20071;-78
2021/07/16 08:41:48;;;;;;;6.65;3.97;;;;;;;24.48;100.00;97921.59;5038093;28;20092;-80
2021/07/16 08:44:14;;;;;;;10.20;4.43;;;;;;;24.58;100.00;97921.56;5022193;28;20076;-78
2021/07/16 08:46:49;;;;;;;9.35;3.75;;;;;;;24.25;100.00;97927.56;5042481;28;20045;-80
2021/07/16 08:49:19;;;;;;;8.23;4.20;;;;;;;24.26;100.00;97926.38;5057898;28;20055;-82
2021/07/16 08:51:49;;;;;;;8.82;3.75;;;;;;;24.34;100.00;97919.63;5055905;28;20045;-81
2021/07/16 08:54:21;;;;;;;4.63;3.40;;;;;;;24.32;100.00;97918.44;5056098;28;20128;-79
2021/07/16 08:56:47;;;;;;;8.95;4.07;;;;;;;24.48;100.00;97927.13;5037986;28;20472;-78
2021/07/16 08:59:15;;;;;;;5.90;3.67;;;;;;;24.78;100.00;97922.72;5053377;28;20049;-79
2021/07/16 09:01:43;;;;;;;9.25;3.45;;;;;;;25.00;100.00;97928.16;5020446;28;20045;-79
2021/07/16 09:04:13;;;;;;;8.02;4.15;;;;;;;24.98;100.00;97931.34;5029995;28;20096;-80
2021/07/16 09:06:47;;;;;;;9.45;4.20;;;;;;;24.48;100.00;97916.06;5050785;28;20087;-82
2021/07/16 09:09:17;;;;;;;12.70;4.30;;;;;;;24.56;100.00;97920.38;5069078;28;20037;-80
2021/07/16 09:11:50;;;;;;;12.10;4.13;;;;;;;24.64;100.00;97914.44;5051083;28;20059;-80
2021/07/16 09:14:22;;;;;;;16.20;5.13;;;;;;;24.97;100.00;97918.69;5065878;28;20055;-79
2021/07/16 09:17:03;;;;;;;10.60;4.00;;;;;;;25.07;100.00;97926.16;5068523;28;20635;-81
2021/07/16 09:19:34;;;;;;;15.65;4.70;;;;;;;25.18;100.00;97923.34;5050331;28;20059;-83
2021/07/16 09:22:16;;;;;;;8.38;3.70;;;;;;;25.28;100.00;97925.25;5030829;28;20179;-80
2021/07/16 09:24:52;;;;;;;7.80;3.70;;;;;;;25.70;100.00;97922.25;5044906;28;20045;-81
2021/07/16 09:27:43;;;;;;;9.50;4.68;;;;;;;25.58;100.00;97925.47;5046031;28;20045;-82
2021/07/16 09:30:21;;;;;;;6.47;3.88;;;;;;;25.97;100.00;97914.09;5061648;28;20055;-83
2021/07/16 09:33:04;;;;;;;8.13;4.20;;;;;;;25.94;100.00;97910.16;5048185;28;20064;-81
2021/07/16 09:35:37;;;;;;;9.25;3.50;;;;;;;26.16;100.00;97905.22;5043493;28;20057;-82
2021/07/16 09:38:19;;;;;;;9.83;4.20;;;;;;;26.03;100.00;97918.00;5043936;28;20083;-81
2021/07/16 09:40:50;;;;;;;11.80;4.35;;;;;;;25.88;100.00;97920.13;5027057;28;20045;-81
2021/07/16 09:43:46;;;;;;;10.13;4.50;;;;;;;25.86;100.00;97911.41;5048044;28;20073;-79
2021/07/16 09:46:20;;;;;;;8.70;5.10;;;;;;;27.29;100.00;97917.81;5043544;28;20053;-82
2021/07/16 09:48:47;;;;;;;11.63;6.80;;;;;;;27.93;100.00;97922.44;5042470;28;20049;-82
2021/07/16 09:51:27;;;;;;;17.85;9.13;;;;;;;28.02;100.00;97909.59;5044907;28;20044;-80
2021/07/16 09:54:03;;;;;;;13.73;7.63;;;;;;;28.34;100.00;97903.47;5048170;28;20045;-79
2021/07/16 09:56:46;;;;;;;10.98;6.40;;;;;;;29.11;100.00;97934.63;5062237;28;20049;-80
2021/07/16 09:59:17;;;;;;;13.90;7.33;;;;;;;29.52;100.00;97926.59;5042597;28;20377;-81
2021/07/16 10:01:49;;;;;;;18.05;8.60;;;;;;;29.88;100.00;97922.97;5026507;28;20468;-82
2021/07/16 10:04:33;;;;;;;17.95;9.35;;;;;;;28.44;100.00;97922.75;5029269;28;20104;-82
2021/07/16 10:07:45;;;;;;;11.48;8.10;;;;;;;26.99;100.00;97906.72;4979939;28;20126;-79
2021/07/16 10:10:28;;;;;;;16.45;8.40;;;;;;;26.36;100.00;97914.53;4968125;28;20057;-79
2021/07/16 10:13:00;;;;;;;16.90;10.05;;;;;;;27.45;100.00;97922.81;4981288;28;20047;-81
2021/07/16 10:15:33;;;;;;;19.35;11.25;;;;;;;27.12;100.00;97904.97;4968333;28;20074;-81
2021/07/16 10:18:01;;;;;;;16.40;11.18;;;;;;;27.63;100.00;97914.97;4969733;28;20043;-80
2021/07/16 10:20:34;;;;;;;17.90;12.85;;;;;;;26.58;100.00;97912.34;4977355;28;20051;-79
2021/07/16 10:23:10;;;;;;;16.27;11.80;;;;;;;27.95;100.00;97908.91;5022604;28;20049;-80
2021/07/16 10:25:38;;;;;;;23.90;13.60;;;;;;;28.63;100.00;97912.09;5058107;28;20048;-81
2021/07/16 10:28:05;;;;;;;20.77;12.10;;;;;;;28.61;100.00;97911.72;5044726;28;20037;-80
2021/07/16 10:30:38;;;;;;;19.02;13.07;;;;;;;28.43;100.00;97921.22;5045823;28;20108;-82
2021/07/16 10:33:05;;;;;;;22.08;12.13;;;;;;;29.22;100.00;97918.47;5028778;28;20217;-80
2021/07/16 10:35:39;;;;;;;22.80;12.20;;;;;;;29.93;100.00;97925.25;5040818;28;20060;-83
2021/07/16 10:38:35;;;;;;;18.42;11.93;;;;;;;29.65;100.00;97924.66;5051059;28;20049;-83
2021/07/16 10:41:07;;;;;;;15.48;10.68;;;;;;;29.99;100.00;97917.94;5052812;28;20128;-82
2021/07/16 10:43:40;;;;;;;21.48;11.80;;;;;;;29.83;100.00;97921.50;5038477;28;20043;-82
2021/07/16 10:46:46;;;;;;;21.23;11.57;;;;;;;29.68;100.00;97925.81;5038061;28;20219;-85
2021/07/16 10:49:18;;;;;;;16.88;9.82;;;;;;;29.98;100.00;97925.50;4953655;28;20122;-83
2021/07/16 10:52:12;;;;;;;14.52;10.10;;;;;;;30.37;100.00;97943.31;4936560;29;20051;-83
2021/07/16 10:54:55;;;;;;;18.25;11.73;;;;;;;30.86;100.00;97939.19;4933054;29;20074;-80
2021/07/16 10:57:41;;;;;;;15.82;10.77;;;;;;;30.51;100.00;97954.09;4949508;28;20332;-85
2021/07/16 11:00:14;;;;;;;17.73;11.18;;;;;;;30.92;100.00;97934.63;4979611;28;20060;-84
2021/07/16 11:02:49;;;;;;;25.85;13.98;;;;;;;30.97;100.00;97952.91;5048623;28;20048;-83
2021/07/16 11:05:32;;;;;;;15.57;9.90;;;;;;;31.15;100.00;97958.78;5035217;28;20083;-84
2021/07/16 11:08:06;;;;;;;19.77;13.13;;;;;;;30.96;100.00;97956.91;5023226;28;20031;-83
2021/07/16 11:10:56;;;;;;;19.20;12.18;;;;;;;31.87;100.00;97954.19;5039516;28;20053;-83
2021/07/16 11:13:37;;;;;;;16.83;10.55;;;;;;;32.21;100.00;97959.06;5055230;28;20095;-82
2021/07/16 11:16:15;;;;;;;15.85;10.40;;;;;;;32.00;90.82;97968.97;5054645;28;20080;-83
2021/07/16 11:19:04;;;;;;;18.80;9.02;;;;;;;32.39;87.02;97956.47;5035013;28;20041;-82
2021/07/16 11:21:47;;;;;;;13.43;8.95;;;;;;;32.37;83.96;97958.16;5035439;28;20820;-82
2021/07/16 11:24:27;;;;;;;20.55;9.00;;;;;;;33.32;69.99;97942.78;5034547;28;20037;-82
2021/07/16 11:27:06;;;;;;;13.70;8.77;;;;;;;33.59;77.23;97952.16;5067986;28;20068;-82
2021/07/16 11:29:43;;;;;;;15.13;9.77;;;;;;;32.79;81.33;97951.09;5020866;28;20161;-84
2021/07/16 11:32:16;;;;;;;18.38;11.95;;;;;;;33.32;74.65;97937.91;5038245;28;20233;-84
2021/07/16 11:35:14;;;;;;;15.95;10.18;;;;;;;32.29;94.54;97931.63;5039988;28;20076;-82
2021/07/16 11:37:50;;;;;;;17.02;9.07;;;;;;;31.33;96.57;97920.63;5041145;28;20045;-81
2021/07/16 11:40:26;;;;;;;14.63;8.80;;;;;;;32.69;74.89;97917.81;5034237;28;20148;-82
2021/07/16 11:43:18;;;;;;;14.48;8.60;;;;;;;33.02;69.62;97911.38;5038106;28;20079;-83
2021/07/16 11:45:57;;;;;;;15.23;7.65;;;;;;;33.21;69.65;97915.13;5036246;28;20045;-83
2021/07/16 11:48:25;;;;;;;14.02;6.90;;;;;;;34.48;61.54;97916.34;5057683;28;20123;-82
2021/07/16 11:50:52;;;;;;;9.68;6.10;;;;;;;33.13;67.89;97900.56;5037526;28;20049;-83